Pagina principale
METAR-TAF:

METAR-TAF

Aeroporti :

Roma, Italia

Aeroporto di Roma-Urbe

latitudine: 41-57N, longitudine: 012-30E, altezza: 18 m

Osservazione

Il bollettino è stato emesso 49 minuti fa, alle 12:50 UTC
Vento 10 kt da ovest/sud-ovest
Temperature 22°C
Umidità 46%
Pressione 1011 hPa
Visibilità 10 km o più
Nubi sparse ad un'altezza di 2500 ft

METAR: LIRU 191250Z 25010KT 9999 SCT025 22/10 Q1011

Ora: 15:39 (13:39 UTC)

Previsione

Il bollettino è stato emesso 2 ore e 39 minuti fa, alle 11:00 UTC
Previsione valida dal 19 alle 12 UTC al 19 alle 21 UTC
Vento 10 kt da ovest
Visibilità 10 km o più
Nubi sparse ad un'altezza di 3000 ft
Evoluzione graduale
dal 19 alle 16 UTC al 19 alle 18 UTC
Vento 5 kt da direzioni variabili

TAF: LIRU 191100Z 1912/1921 28010KT 9999 SCT030 BECMG 1916/1918 VRB05KT

Osservazioni e previsioni meteorologiche di più di 4000 aeroporti (messaggi METAR e TAF).

Le stazioni disponibili sono rappresentate dai dischi gialli e rossi sulla carta.

Puntare il mouse per vedere il nome della stazione.

Clicca sopra per visualizzare le osservazioni e previsioni meteorologiche.

Per cambiare la mappa : fare clic sui pulsanti verdi con una croce nera per ingrandire, il pulsante verde con un trattino per diminuire, o sulla freccia verde per le mappe adiacenti.


METAR-TAF: